createdAt,value
2019-04-29T00:02:28.816Z,4.83
2019-04-29T00:04:58.524Z,5.80
2019-04-29T00:07:28.340Z,4.80
2019-04-29T00:09:58.346Z,4.60
2019-04-29T00:12:29.496Z,4.75
2019-04-29T00:15:03.587Z,5.20
2019-04-29T00:17:34.961Z,5.62
2019-04-29T00:20:11.226Z,5.75
2019-04-29T00:22:40.862Z,5.67
2019-04-29T00:25:11.089Z,5.47
2019-04-29T00:27:40.826Z,6.70
2019-04-29T00:30:12.193Z,6.62
2019-04-29T00:32:41.776Z,7.47
2019-04-29T00:35:12.986Z,7.45
2019-04-29T00:37:45.062Z,7.77
2019-04-29T00:40:32.231Z,8.35
2019-04-29T00:43:19.389Z,8.03
2019-04-29T00:45:49.305Z,6.50
2019-04-29T00:48:19.206Z,7.45
2019-04-29T00:50:48.818Z,6.75
2019-04-29T00:53:18.509Z,5.85
2019-04-29T00:55:49.764Z,6.33
2019-04-29T00:58:19.538Z,7.17
2019-04-29T01:00:49.361Z,7.42
2019-04-29T01:03:19.095Z,6.87
2019-04-29T01:05:48.784Z,6.75
2019-04-29T01:08:18.458Z,6.53
2019-04-29T01:10:48.107Z,6.67
2019-04-29T01:13:17.828Z,6.00
2019-04-29T01:15:47.580Z,5.83
2019-04-29T01:18:17.483Z,6.20
2019-04-29T01:20:47.198Z,6.45
2019-04-29T01:23:16.778Z,6.55
2019-04-29T01:25:48.020Z,5.22
2019-04-29T01:28:22.013Z,5.28
2019-04-29T01:31:04.840Z,5.92
2019-04-29T01:33:34.661Z,6.37
2019-04-29T01:36:16.040Z,6.22
2019-04-29T01:38:48.857Z,7.30
2019-04-29T01:41:29.474Z,6.83
2019-04-29T01:44:00.830Z,7.08
2019-04-29T01:46:31.085Z,6.90
2019-04-29T01:49:00.784Z,5.97
2019-04-29T01:51:30.488Z,6.78
2019-04-29T01:54:00.454Z,6.87
2019-04-29T01:56:30.191Z,5.97
2019-04-29T01:58:59.963Z,5.70
2019-04-29T02:01:29.631Z,6.62
2019-04-29T02:03:59.361Z,6.35
2019-04-29T02:06:29.044Z,6.17
2019-04-29T02:08:59.086Z,6.70
2019-04-29T02:11:28.708Z,6.17
2019-04-29T02:13:58.288Z,6.83
2019-04-29T02:16:28.028Z,7.65
2019-04-29T02:18:57.617Z,7.70
2019-04-29T02:21:27.197Z,8.50
2019-04-29T02:24:00.907Z,8.75
2019-04-29T02:26:30.768Z,8.45
2019-04-29T02:29:00.439Z,10.38
2019-04-29T02:31:40.358Z,11.20
2019-04-29T02:34:11.330Z,9.70
2019-04-29T02:36:41.330Z,8.85
2019-04-29T02:39:12.642Z,9.55
2019-04-29T02:41:44.026Z,11.70
2019-04-29T02:44:13.952Z,12.80
2019-04-29T02:46:43.760Z,11.70
2019-04-29T02:49:13.483Z,12.53
2019-04-29T02:51:53.339Z,15.20
2019-04-29T02:54:24.866Z,18.25
2019-04-29T02:57:02.112Z,14.45
2019-04-29T02:59:31.560Z,16.82
2019-04-29T03:02:03.959Z,15.90
2019-04-29T03:04:38.008Z,19.12
2019-04-29T03:07:07.839Z,19.95
2019-04-29T03:09:46.612Z,15.35
2019-04-29T03:12:16.339Z,14.07
2019-04-29T03:14:45.967Z,15.53
2019-04-29T03:17:18.826Z,15.08
2019-04-29T03:20:05.161Z,18.52
2019-04-29T03:22:35.327Z,19.75
2019-04-29T03:25:06.381Z,17.60
2019-04-29T03:27:36.140Z,17.82
2019-04-29T03:30:08.802Z,19.67
2019-04-29T03:32:38.432Z,21.68
2019-04-29T03:35:08.931Z,13.70
2019-04-29T03:37:38.575Z,9.78
2019-04-29T03:40:08.391Z,6.37
2019-04-29T03:42:38.056Z,6.62
2019-04-29T03:45:09.047Z,8.40
2019-04-29T03:47:38.743Z,8.00
2019-04-29T03:50:08.572Z,8.05
2019-04-29T03:52:38.290Z,12.15
2019-04-29T03:55:08.599Z,14.53
2019-04-29T03:57:38.910Z,14.43
2019-04-29T04:00:12.632Z,20.15
2019-04-29T04:02:42.507Z,18.25
2019-04-29T04:05:17.093Z,49.15
2019-04-29T04:07:55.981Z,17.32
2019-04-29T04:10:25.805Z,24.27
2019-04-29T04:12:55.541Z,13.15
2019-04-29T04:15:25.544Z,13.10
2019-04-29T04:18:13.093Z,12.82
2019-04-29T04:20:43.079Z,19.90
2019-04-29T04:23:13.042Z,14.50
2019-04-29T04:25:43.041Z,20.85
2019-04-29T04:28:13.045Z,23.87
2019-04-29T04:30:43.134Z,19.37
2019-04-29T04:33:13.336Z,15.98
2019-04-29T04:35:43.410Z,15.80
2019-04-29T04:38:13.389Z,17.85
2019-04-29T04:40:45.090Z,22.98
2019-04-29T04:43:15.069Z,26.12
2019-04-29T04:45:45.290Z,17.27
2019-04-29T04:48:15.349Z,21.93
2019-04-29T04:50:45.426Z,26.65
2019-04-29T04:53:15.448Z,20.43
2019-04-29T04:55:47.010Z,29.98
2019-04-29T04:58:17.082Z,30.95
2019-04-29T05:00:47.357Z,31.23
2019-04-29T05:03:17.288Z,35.48
2019-04-29T05:05:47.211Z,58.65
2019-04-29T05:08:17.184Z,36.20
2019-04-29T05:10:47.320Z,23.47
2019-04-29T05:13:28.027Z,31.70
2019-04-29T05:15:49.401Z,31.77
2019-04-29T05:18:19.600Z,29.98
2019-04-29T05:20:49.682Z,36.25
2019-04-29T05:23:19.933Z,48.83
2019-04-29T05:25:49.980Z,48.83
2019-04-29T05:28:20.122Z,27.95
2019-04-29T05:30:50.222Z,28.55
2019-04-29T05:33:20.669Z,40.75
2019-04-29T05:36:03.496Z,43.40
2019-04-29T05:38:40.674Z,30.82
2019-04-29T05:41:11.014Z,42.58
2019-04-29T05:43:59.311Z,42.88
2019-04-29T05:46:43.490Z,35.95
2019-04-29T05:49:15.354Z,32.73
2019-04-29T05:51:53.034Z,39.23
2019-04-29T05:54:26.906Z,38.48
2019-04-29T05:56:56.651Z,30.90
2019-04-29T05:59:27.198Z,27.32
2019-04-29T06:01:57.753Z,31.62
2019-04-29T06:04:28.702Z,28.12
2019-04-29T06:06:59.063Z,30.63
2019-04-29T06:09:28.921Z,28.23
2019-04-29T06:11:58.870Z,29.77
2019-04-29T06:14:28.831Z,32.13
2019-04-29T06:17:02.829Z,58.63
2019-04-29T06:19:30.495Z,25.35
2019-04-29T06:22:00.331Z,27.52
2019-04-29T06:24:30.209Z,38.63
2019-04-29T06:27:00.033Z,41.58
2019-04-29T06:29:30.203Z,49.50
2019-04-29T06:32:00.018Z,28.45
2019-04-29T06:34:29.909Z,25.40
2019-04-29T06:36:59.708Z,29.50
2019-04-29T06:39:29.643Z,64.47
2019-04-29T06:41:59.483Z,53.23
2019-04-29T06:44:29.383Z,63.40
2019-04-29T06:46:59.331Z,26.50
2019-04-29T06:49:29.176Z,20.95
2019-04-29T06:51:59.176Z,26.10
2019-04-29T06:54:29.182Z,26.25
2019-04-29T06:56:59.166Z,42.08
2019-04-29T06:59:29.564Z,23.52
2019-04-29T07:01:59.637Z,25.60
2019-04-29T07:04:30.723Z,19.57
2019-04-29T07:07:01.735Z,22.65
2019-04-29T07:09:31.780Z,21.48
2019-04-29T07:12:02.270Z,19.60
2019-04-29T07:14:35.950Z,22.20
2019-04-29T07:17:05.755Z,23.80
2019-04-29T07:22:06.004Z,47.33
2019-04-29T07:24:36.536Z,47.38
2019-04-29T07:27:06.556Z,49.27
2019-04-29T07:29:38.124Z,51.35
2019-04-29T07:32:09.608Z,57.60
2019-04-29T07:35:15.986Z,48.30
2019-04-29T07:37:46.355Z,54.18
2019-04-29T07:40:17.901Z,70.55
2019-04-29T07:42:48.239Z,55.38
2019-04-29T07:45:18.886Z,50.55
2019-04-29T07:47:56.534Z,59.00
2019-04-29T07:50:26.843Z,61.40
2019-04-29T07:52:54.946Z,63.98
2019-04-29T07:55:25.906Z,89.42
2019-04-29T08:00:35.392Z,73.83
2019-04-29T08:03:08.553Z,51.33
2019-04-29T08:05:39.170Z,51.08
2019-04-29T08:08:09.278Z,59.45
2019-04-29T08:10:52.517Z,57.80
2019-04-29T08:13:13.135Z,58.23
2019-04-29T08:15:43.636Z,51.88
2019-04-29T08:18:16.274Z,49.55
2019-04-29T08:20:46.198Z,44.00
2019-04-29T08:23:16.445Z,51.15
2019-04-29T08:25:46.790Z,66.65
2019-04-29T08:28:17.003Z,78.55
2019-04-29T08:30:47.440Z,60.12
2019-04-29T08:33:17.786Z,66.65
2019-04-29T08:35:48.118Z,71.97
2019-04-29T08:38:18.356Z,71.10
2019-04-29T08:40:49.926Z,68.15
2019-04-29T08:46:01.823Z,46.37
2019-04-29T08:48:32.037Z,44.73
2019-04-29T08:51:02.463Z,37.80
2019-04-29T08:53:32.952Z,38.63
2019-04-29T08:56:05.612Z,39.73
2019-04-29T08:58:35.180Z,39.60
2019-04-29T09:01:05.496Z,38.73
2019-04-29T09:03:40.631Z,37.78
2019-04-29T09:06:07.760Z,35.78
2019-04-29T09:08:53.464Z,35.60
2019-04-29T09:13:41.339Z,34.98
2019-04-29T09:16:11.399Z,33.78
2019-04-29T09:18:41.496Z,33.18
2019-04-29T09:21:11.970Z,35.03
2019-04-29T09:23:42.252Z,35.75
2019-04-29T09:26:19.835Z,34.38
2019-04-29T09:28:50.195Z,37.42
2019-04-29T09:31:20.760Z,37.23
2019-04-29T09:33:59.686Z,35.25
2019-04-29T09:36:22.936Z,30.77
2019-04-29T09:38:53.381Z,20.85
2019-04-29T09:41:23.368Z,17.42
2019-04-29T09:44:04.008Z,17.07
2019-04-29T09:46:36.167Z,14.35
2019-04-29T09:51:35.749Z,12.60
2019-04-29T09:54:09.625Z,11.88
2019-04-29T09:56:37.918Z,12.23
2019-04-29T09:59:28.399Z,12.60
2019-04-29T10:02:16.440Z,10.95
2019-04-29T10:04:56.318Z,12.85
2019-04-29T10:07:20.136Z,11.60
2019-04-29T10:09:56.955Z,9.18
2019-04-29T10:12:22.317Z,8.45
2019-04-29T10:14:53.688Z,10.85
2019-04-29T10:17:23.681Z,8.88
2019-04-29T10:19:55.374Z,9.40
2019-04-29T10:22:25.606Z,7.28
2019-04-29T10:24:56.143Z,8.48
2019-04-29T10:27:26.295Z,7.92
2019-04-29T10:29:57.180Z,6.42
2019-04-29T10:32:27.766Z,5.83
2019-04-29T10:34:57.983Z,5.30
2019-04-29T10:37:31.412Z,7.35
2019-04-29T10:40:11.098Z,5.62
2019-04-29T10:42:36.051Z,4.47
2019-04-29T10:45:19.556Z,3.00
2019-04-29T10:47:49.658Z,4.15
2019-04-29T10:50:38.106Z,5.58
2019-04-29T10:53:11.137Z,4.05
2019-04-29T10:55:42.052Z,6.28
2019-04-29T10:58:13.202Z,6.65
2019-04-29T11:00:57.267Z,14.43
2019-04-29T11:03:27.151Z,3.90
2019-04-29T11:06:01.756Z,8.20
2019-04-29T11:08:38.032Z,3.00
2019-04-29T11:11:07.012Z,2.40
2019-04-29T11:13:45.965Z,2.40
2019-04-29T11:16:11.086Z,2.47
2019-04-29T11:18:41.551Z,2.55
2019-04-29T11:21:12.053Z,2.10
2019-04-29T11:23:43.786Z,2.58
2019-04-29T11:26:33.747Z,3.72
2019-04-29T11:29:06.274Z,2.70
2019-04-29T11:31:37.242Z,2.62
2019-04-29T11:34:15.962Z,2.37
2019-04-29T11:36:46.096Z,2.30
2019-04-29T11:39:17.559Z,1.85
2019-04-29T11:41:50.038Z,1.70
2019-04-29T11:44:21.846Z,2.40
2019-04-29T11:49:22.888Z,3.98
2019-04-29T11:52:08.430Z,2.00
2019-04-29T11:54:25.080Z,2.12
2019-04-29T11:56:55.507Z,1.90
2019-04-29T11:59:44.977Z,2.60
2019-04-29T12:02:44.493Z,2.33
2019-04-29T12:05:08.760Z,1.60
2019-04-29T12:07:38.562Z,1.77
2019-04-29T12:10:09.478Z,1.70
2019-04-29T12:12:43.527Z,1.57
2019-04-29T12:15:13.606Z,1.65
2019-04-29T12:17:46.465Z,1.67
2019-04-29T12:20:27.835Z,1.87
2019-04-29T12:22:58.038Z,2.00
2019-04-29T12:25:29.335Z,2.05
2019-04-29T12:28:02.055Z,1.40
2019-04-29T12:30:34.602Z,1.72
2019-04-29T12:33:06.928Z,1.72
2019-04-29T12:35:51.763Z,2.70
2019-04-29T12:38:21.346Z,1.85
2019-04-29T12:41:19.696Z,1.60
2019-04-29T12:43:59.172Z,1.60
2019-04-29T12:46:40.427Z,1.75
2019-04-29T12:49:13.526Z,1.72
2019-04-29T12:54:12.068Z,1.75
2019-04-29T12:56:43.088Z,2.30
2019-04-29T12:59:14.701Z,2.55
2019-04-29T13:02:03.932Z,2.58
2019-04-29T13:04:52.236Z,1.90
2019-04-29T13:07:33.564Z,1.57
2019-04-29T13:10:13.736Z,2.20
2019-04-29T13:12:44.685Z,1.57
2019-04-29T13:18:13.028Z,1.55
2019-04-29T13:20:41.455Z,1.55
2019-04-29T13:25:41.308Z,1.65
2019-04-29T13:28:11.657Z,1.77
2019-04-29T13:30:43.414Z,1.50
2019-04-29T13:33:22.503Z,1.40
2019-04-29T13:35:48.422Z,1.82
2019-04-29T13:38:17.675Z,1.40
2019-04-29T13:40:48.021Z,1.30
2019-04-29T13:43:20.697Z,2.22
2019-04-29T13:45:51.629Z,1.55
2019-04-29T13:48:54.319Z,1.82
2019-04-29T13:51:34.425Z,1.65
2019-04-29T13:53:49.814Z,1.70
2019-04-29T13:56:35.111Z,1.57
2019-04-29T13:58:51.822Z,1.65
2019-04-29T14:01:32.962Z,1.47
2019-04-29T14:04:07.518Z,1.50
2019-04-29T14:06:39.126Z,1.55
2019-04-29T14:09:10.604Z,1.67
2019-04-29T14:11:40.911Z,1.32
2019-04-29T14:14:11.365Z,1.30
2019-04-29T14:16:43.149Z,1.30
2019-04-29T14:19:13.398Z,3.95
2019-04-29T14:21:43.736Z,3.95
2019-04-29T14:24:14.107Z,2.17
2019-04-29T14:26:47.751Z,1.80
2019-04-29T14:31:47.255Z,2.27
2019-04-29T14:34:21.840Z,3.45
2019-04-29T14:36:57.485Z,1.50
2019-04-29T14:39:36.620Z,1.75
2019-04-29T14:44:46.824Z,6.33
2019-04-29T14:47:25.728Z,2.17
2019-04-29T14:50:00.720Z,1.57
2019-04-29T14:52:31.063Z,1.50
2019-04-29T14:55:01.314Z,1.40
2019-04-29T14:57:31.527Z,1.40
2019-04-29T15:00:01.822Z,1.45
2019-04-29T15:02:32.545Z,1.52
2019-04-29T15:05:07.063Z,1.52
2019-04-29T15:10:11.195Z,1.45
2019-04-29T15:13:19.661Z,1.50
2019-04-29T15:15:36.026Z,1.50
2019-04-29T15:18:16.228Z,1.40
2019-04-29T15:20:56.211Z,1.37
2019-04-29T15:23:29.268Z,1.15
2019-04-29T15:28:27.047Z,1.30
2019-04-29T15:30:57.286Z,1.30
2019-04-29T15:33:30.579Z,1.40
2019-04-29T15:38:30.679Z,1.22
2019-04-29T15:41:00.976Z,1.62
2019-04-29T15:43:46.462Z,1.42
2019-04-29T15:46:06.713Z,1.57
2019-04-29T15:48:35.202Z,1.70
2019-04-29T15:51:09.211Z,1.52
2019-04-29T15:53:37.824Z,1.05
2019-04-29T15:56:27.194Z,1.20
2019-04-29T16:01:16.859Z,1.07
2019-04-29T16:03:42.914Z,1.50
2019-04-29T16:06:27.009Z,1.12
2019-04-29T16:09:05.004Z,1.10
2019-04-29T16:11:34.949Z,1.47
2019-04-29T16:14:09.908Z,1.30
2019-04-29T16:16:39.224Z,1.50
2019-04-29T16:19:10.447Z,2.00
2019-04-29T16:21:41.826Z,1.12
2019-04-29T16:24:26.017Z,1.37
2019-04-29T16:26:44.141Z,1.40
2019-04-29T16:29:15.387Z,1.40
2019-04-29T16:31:45.994Z,1.40
2019-04-29T16:34:16.077Z,1.85
2019-04-29T16:36:49.893Z,1.22
2019-04-29T16:39:18.200Z,1.60
2019-04-29T16:41:58.043Z,1.00
2019-04-29T16:44:35.708Z,0.90
2019-04-29T16:46:59.770Z,1.72
2019-04-29T16:49:30.027Z,1.02
2019-04-29T16:52:00.330Z,1.00
2019-04-29T16:54:30.823Z,1.20
2019-04-29T16:57:01.153Z,1.45
2019-04-29T16:59:31.433Z,0.90
2019-04-29T17:02:01.845Z,1.05
2019-04-29T17:04:32.147Z,1.10
2019-04-29T17:07:12.412Z,1.12
2019-04-29T17:09:41.771Z,1.30
2019-04-29T17:12:11.944Z,1.17
2019-04-29T17:15:02.434Z,0.95
2019-04-29T17:17:28.539Z,1.10
2019-04-29T17:19:53.622Z,1.17
2019-04-29T17:22:26.082Z,1.05
2019-04-29T17:24:56.087Z,1.22
2019-04-29T17:27:28.798Z,1.15
2019-04-29T17:30:04.065Z,1.47
2019-04-29T17:32:48.473Z,1.17
2019-04-29T17:35:21.694Z,1.35
2019-04-29T17:40:20.350Z,2.05
2019-04-29T17:42:52.352Z,1.10
2019-04-29T17:45:33.804Z,1.22
2019-04-29T17:48:05.539Z,1.10
2019-04-29T17:50:46.199Z,1.45
2019-04-29T17:53:15.208Z,1.55
2019-04-29T17:55:47.003Z,1.52
2019-04-29T17:58:35.867Z,1.47
2019-04-29T18:01:08.437Z,2.05
2019-04-29T18:03:42.715Z,1.52
2019-04-29T18:06:24.354Z,2.00
2019-04-29T18:08:55.023Z,1.80
2019-04-29T18:11:25.477Z,2.22
2019-04-29T18:13:56.950Z,2.37
2019-04-29T18:16:29.509Z,2.70
2019-04-29T18:21:53.643Z,2.62
2019-04-29T18:24:25.431Z,2.08
2019-04-29T18:27:03.369Z,2.50
2019-04-29T18:29:36.340Z,2.65
2019-04-29T18:32:07.942Z,4.65
2019-04-29T18:34:38.131Z,5.72
2019-04-29T18:37:08.430Z,2.98
2019-04-29T18:39:38.656Z,2.05
2019-04-29T18:42:09.473Z,1.70
2019-04-29T18:44:42.036Z,2.02
2019-04-29T18:47:20.665Z,1.80
2019-04-29T18:49:43.221Z,2.52
2019-04-29T18:52:23.841Z,2.08
2019-04-29T18:54:45.314Z,2.22
2019-04-29T18:57:27.418Z,2.77
2019-04-29T18:59:47.443Z,2.90
2019-04-29T19:02:17.423Z,3.90
2019-04-29T19:04:56.452Z,4.22
2019-04-29T19:07:26.680Z,3.95
2019-04-29T19:09:56.517Z,3.12
2019-04-29T19:12:26.316Z,3.22
2019-04-29T19:15:04.422Z,3.05
2019-04-29T19:17:30.867Z,2.55
2019-04-29T19:20:01.947Z,3.45
2019-04-29T19:22:31.821Z,2.92
2019-04-29T19:25:01.408Z,5.03
2019-04-29T19:27:37.170Z,5.33
2019-04-29T19:30:03.073Z,5.45
2019-04-29T19:32:32.747Z,3.60
2019-04-29T19:35:02.570Z,5.45
2019-04-29T19:37:36.345Z,4.37
2019-04-29T19:40:04.878Z,3.55
2019-04-29T19:42:35.906Z,3.10
2019-04-29T19:45:13.159Z,2.90
2019-04-29T19:47:38.524Z,3.12
2019-04-29T19:50:10.470Z,5.35
2019-04-29T19:55:09.336Z,5.20
2019-04-29T19:57:46.878Z,5.95
2019-04-29T20:00:11.296Z,6.33
2019-04-29T20:02:48.252Z,6.92
2019-04-29T20:05:16.477Z,6.80
2019-04-29T20:07:49.674Z,6.75
2019-04-29T20:10:18.846Z,6.62
2019-04-29T20:12:53.344Z,6.85
2019-04-29T20:15:21.109Z,8.00
2019-04-29T20:17:52.848Z,6.60
2019-04-29T20:20:25.351Z,6.72
2019-04-29T20:22:55.700Z,5.80
2019-04-29T20:25:32.347Z,7.12
2019-04-29T20:28:05.534Z,5.72
2019-04-29T20:30:28.916Z,6.65
2019-04-29T20:33:01.209Z,5.90
2019-04-29T20:35:30.330Z,7.17
2019-04-29T20:38:00.428Z,6.35
2019-04-29T20:40:35.297Z,6.08
2019-04-29T20:43:01.892Z,5.35
2019-04-29T20:45:31.657Z,5.03
2019-04-29T20:48:01.459Z,4.67
2019-04-29T20:50:31.340Z,4.20
2019-04-29T20:53:02.491Z,4.12
2019-04-29T20:55:36.663Z,4.47
2019-04-29T20:58:06.437Z,4.25
2019-04-29T21:00:37.003Z,4.37
2019-04-29T21:03:09.301Z,4.70
2019-04-29T21:05:47.391Z,3.72
2019-04-29T21:08:16.470Z,4.42
2019-04-29T21:10:42.926Z,4.78
2019-04-29T21:13:30.061Z,4.65
2019-04-29T21:16:07.032Z,4.80
2019-04-29T21:18:38.780Z,4.42
2019-04-29T21:21:08.287Z,4.60
2019-04-29T21:23:38.034Z,4.42
2019-04-29T21:26:08.792Z,4.90
2019-04-29T21:28:41.455Z,5.55
2019-04-29T21:31:11.763Z,5.30
2019-04-29T21:33:41.633Z,5.53
2019-04-29T21:36:12.877Z,6.30
2019-04-29T21:39:01.661Z,5.57
2019-04-29T21:41:39.276Z,5.80
2019-04-29T21:44:08.933Z,6.40
2019-04-29T21:46:38.781Z,6.75
2019-04-29T21:49:11.633Z,6.80
2019-04-29T21:51:41.834Z,6.95
2019-04-29T21:54:14.227Z,7.22
2019-04-29T21:56:46.471Z,7.72
2019-04-29T21:59:15.759Z,8.20
2019-04-29T22:01:46.654Z,7.65
2019-04-29T22:04:16.245Z,7.90
2019-04-29T22:06:47.510Z,7.78
2019-04-29T22:09:19.068Z,8.63
2019-04-29T22:11:48.945Z,8.03
2019-04-29T22:14:18.814Z,7.97
2019-04-29T22:16:53.650Z,7.62
2019-04-29T22:19:26.049Z,7.90
2019-04-29T22:21:52.785Z,7.70
2019-04-29T22:24:26.166Z,8.45
2019-04-29T22:26:56.403Z,8.60
2019-04-29T22:29:25.779Z,8.30
2019-04-29T22:31:55.970Z,8.33
2019-04-29T22:34:27.177Z,8.73
2019-04-29T22:36:58.352Z,8.10
2019-04-29T22:39:30.170Z,8.40
2019-04-29T22:42:02.427Z,8.05
2019-04-29T22:44:32.262Z,8.25
2019-04-29T22:47:01.956Z,8.45
2019-04-29T22:49:31.738Z,8.30
2019-04-29T22:52:01.483Z,8.30
2019-04-29T22:54:31.361Z,8.70
2019-04-29T22:57:01.213Z,9.95
2019-04-29T22:59:31.111Z,9.70
2019-04-29T23:02:00.942Z,10.48
2019-04-29T23:04:30.628Z,10.13
2019-04-29T23:07:00.243Z,9.58
2019-04-29T23:09:29.956Z,9.98
2019-04-29T23:12:01.347Z,11.80
2019-04-29T23:14:31.128Z,12.88
2019-04-29T23:17:00.943Z,12.95
2019-04-29T23:19:30.634Z,12.30
2019-04-29T23:22:16.892Z,12.50
2019-04-29T23:24:46.677Z,13.35
2019-04-29T23:27:19.499Z,13.40
2019-04-29T23:29:47.573Z,13.18
2019-04-29T23:32:17.313Z,13.18
2019-04-29T23:34:47.129Z,12.63
2019-04-29T23:37:19.540Z,12.85
2019-04-29T23:39:48.376Z,13.18
2019-04-29T23:42:18.145Z,12.88
2019-04-29T23:44:47.805Z,12.30
2019-04-29T23:47:17.842Z,11.18
2019-04-29T23:49:47.594Z,11.55
2019-04-29T23:52:17.969Z,11.35
2019-04-29T23:54:48.588Z,11.43
2019-04-29T23:57:23.655Z,11.25
